Time;durP1;ratioP1;P1;durP2;ratioP2;P2;SDS_P1;SDS_P2;PMS_P1;PMS_P2;Temp;Humidity;BMP_temperature;BMP_pressure;BME280_temperature;BME280_humidity;BME280_pressure;Samples;Min_cycle;Max_cycle;Signal;HPM_P1;HPM_P2
2020/12/19 00:01:34;;;;;;;5.47;3.33;;;4.70;99.90;;;;;;5044475;28;20037;-78
2020/12/19 00:04:00;;;;;;;6.95;3.10;;;4.70;99.90;;;;;;5046599;28;20135;-77
2020/12/19 00:06:26;;;;;;;8.98;3.45;;;4.70;99.90;;;;;;5047855;28;20204;-78
2020/12/19 00:08:52;;;;;;;7.32;3.75;;;4.60;99.90;;;;;;5067548;28;20029;-77
2020/12/19 00:11:18;;;;;;;7.60;3.50;;;4.60;99.90;;;;;;5069788;28;20047;-77
2020/12/19 00:13:44;;;;;;;7.20;2.80;;;4.50;99.90;;;;;;5054516;28;20041;-78
2020/12/19 00:16:17;;;;;;;9.00;3.63;;;4.60;99.90;;;;;;5065801;28;20130;-77
2020/12/19 00:18:44;;;;;;;7.15;3.47;;;4.60;99.90;;;;;;5054629;28;20040;-76
2020/12/19 00:21:10;;;;;;;6.75;3.35;;;4.60;99.90;;;;;;5049392;28;20040;-77
2020/12/19 00:23:37;;;;;;;4.80;3.03;;;4.50;99.90;;;;;;5066247;28;20055;-77
2020/12/19 00:26:03;;;;;;;5.88;3.55;;;4.40;99.90;;;;;;5059120;28;20068;-78
2020/12/19 00:28:29;;;;;;;6.95;3.53;;;4.40;99.90;;;;;;5068258;28;20079;-79
2020/12/19 00:30:56;;;;;;;6.38;3.42;;;4.40;99.90;;;;;;5049839;28;20069;-77
2020/12/19 00:33:22;;;;;;;6.43;3.42;;;4.30;99.90;;;;;;5051986;28;20060;-79
2020/12/19 00:35:48;;;;;;;6.45;3.38;;;4.20;99.90;;;;;;5051804;28;20082;-78
2020/12/19 00:38:14;;;;;;;7.10;3.38;;;4.20;99.90;;;;;;5062230;28;20048;-77
2020/12/19 00:40:41;;;;;;;4.05;2.83;;;4.30;99.90;;;;;;5068029;28;20128;-79
2020/12/19 00:43:06;;;;;;;6.40;3.22;;;4.30;99.90;;;;;;5068909;28;20045;-77
2020/12/19 00:45:32;;;;;;;6.88;3.65;;;4.30;99.90;;;;;;5067736;28;20085;-77
2020/12/19 00:47:58;;;;;;;7.45;3.58;;;4.10;99.90;;;;;;5067359;28;20782;-77
2020/12/19 00:50:25;;;;;;;5.47;2.92;;;4.10;99.90;;;;;;5062155;28;20051;-77
2020/12/19 00:52:51;;;;;;;8.93;4.10;;;4.10;99.90;;;;;;5056632;28;20044;-78
2020/12/19 00:55:17;;;;;;;6.68;3.53;;;4.30;99.90;;;;;;5055060;28;20037;-79
2020/12/19 00:57:43;;;;;;;6.70;3.30;;;4.10;99.90;;;;;;5051387;28;20044;-77
2020/12/19 01:00:09;;;;;;;;;;;4.00;99.90;;;;;;5049152;28;20041;-77
2020/12/19 01:02:36;;;;;;;7.07;3.55;;;4.10;99.90;;;;;;5050144;28;19916;-76
2020/12/19 01:05:07;;;;;;;5.95;3.40;;;4.20;99.90;;;;;;5048444;28;20133;-77
2020/12/19 01:07:37;;;;;;;13.13;5.10;;;4.10;99.90;;;;;;5058362;28;20044;-78
2020/12/19 01:10:12;;;;;;;13.70;5.18;;;4.10;99.90;;;;;;5058872;28;20032;-78
2020/12/19 01:12:39;;;;;;;9.80;4.35;;;4.30;99.90;;;;;;5055347;28;20028;-76
2020/12/19 01:15:07;;;;;;;7.00;4.30;;;4.40;99.90;;;;;;5061981;28;20587;-78
2020/12/19 01:17:33;;;;;;;9.57;4.75;;;4.50;99.90;;;;;;5047288;28;20041;-79
2020/12/19 01:19:59;;;;;;;6.47;4.30;;;4.60;99.90;;;;;;5048679;28;20090;-77
2020/12/19 01:22:26;;;;;;;6.35;4.20;;;4.70;99.90;;;;;;5048963;28;20489;-78
2020/12/19 01:24:52;;;;;;;7.00;4.07;;;4.80;99.90;;;;;;5064007;28;20102;-77
2020/12/19 01:27:17;;;;;;;7.40;4.20;;;4.90;99.90;;;;;;5053966;28;20464;-78
2020/12/19 01:29:43;;;;;;;;;;;4.90;99.90;;;;;;5048329;28;20044;-78
2020/12/19 01:32:09;;;;;;;7.25;4.25;;;5.10;99.90;;;;;;5047128;28;20015;-77
2020/12/19 01:34:34;;;;;;;;;;;5.30;99.90;;;;;;5049221;28;20037;-76
2020/12/19 01:37:00;;;;;;;6.18;3.85;;;5.40;99.90;;;;;;5049651;28;19916;-77
2020/12/19 01:39:26;;;;;;;8.48;4.57;;;5.40;99.90;;;;;;5051877;28;20044;-79
2020/12/19 01:41:53;;;;;;;9.80;4.55;;;5.40;99.90;;;;;;5066389;28;20045;-77
2020/12/19 01:44:19;;;;;;;9.23;5.15;;;5.40;99.90;;;;;;5057995;28;20041;-79
2020/12/19 01:46:53;;;;;;;;;;;5.50;99.90;;;;;;5067348;28;20047;-79
2020/12/19 01:49:20;;;;;;;8.48;4.95;;;5.60;99.90;;;;;;5067695;28;19916;-78
2020/12/19 01:51:48;;;;;;;12.93;5.15;;;5.60;99.90;;;;;;5065277;28;20369;-78
2020/12/19 01:54:14;;;;;;;9.98;5.68;;;5.70;99.90;;;;;;5072367;28;20393;-76
2020/12/19 01:56:53;;;;;;;8.75;5.45;;;5.80;99.90;;;;;;5054991;28;20036;-76
2020/12/19 01:59:20;;;;;;;10.43;5.63;;;5.80;99.90;;;;;;5056275;28;20048;-79
2020/12/19 02:02:06;;;;;;;9.98;5.03;;;5.90;99.90;;;;;;5052105;28;20058;-78
2020/12/19 02:04:34;;;;;;;7.95;5.03;;;5.90;99.90;;;;;;5048629;28;20444;-78
2020/12/19 02:07:02;;;;;;;10.50;5.25;;;5.90;99.90;;;;;;5063272;28;20056;-76
2020/12/19 02:09:35;;;;;;;13.98;6.18;;;6.00;99.90;;;;;;5066877;28;20036;-78
2020/12/19 02:12:01;;;;;;;8.73;5.20;;;5.90;99.90;;;;;;5067004;28;20119;-78
2020/12/19 02:14:29;;;;;;;8.70;4.85;;;5.80;99.90;;;;;;5066371;28;20126;-79
2020/12/19 02:17:09;;;;;;;7.82;5.07;;;5.80;99.90;;;;;;5057505;28;20036;-76
2020/12/19 02:19:36;;;;;;;8.35;4.60;;;5.80;99.90;;;;;;5049622;28;20036;-77
2020/12/19 02:22:05;;;;;;;7.22;4.60;;;5.90;99.90;;;;;;5048602;28;20064;-77
2020/12/19 02:24:32;;;;;;;7.13;4.63;;;6.00;99.90;;;;;;5071785;28;20052;-76
2020/12/19 02:26:59;;;;;;;8.80;4.68;;;6.00;99.90;;;;;;5064506;28;20089;-76
2020/12/19 02:29:27;;;;;;;8.90;4.78;;;6.20;99.90;;;;;;5050882;28;20037;-77
2020/12/19 02:31:56;;;;;;;7.03;4.47;;;6.20;99.90;;;;;;5045885;28;20128;-75
2020/12/19 02:34:23;;;;;;;12.18;6.15;;;6.20;99.90;;;;;;5046230;28;20102;-76
2020/12/19 02:36:49;;;;;;;8.50;5.50;;;6.30;99.90;;;;;;5050312;28;20484;-75
2020/12/19 02:39:15;;;;;;;9.80;5.38;;;6.40;99.90;;;;;;5058198;28;20029;-76
2020/12/19 02:41:45;;;;;;;;;;;6.30;99.90;;;;;;5046758;28;20044;-77
2020/12/19 02:44:13;;;;;;;9.95;5.45;;;6.30;99.90;;;;;;5046872;28;19928;-76
2020/12/19 02:46:39;;;;;;;8.75;5.05;;;6.30;99.90;;;;;;5045882;28;20048;-77
2020/12/19 02:49:06;;;;;;;9.70;5.32;;;6.30;99.90;;;;;;5049066;28;20028;-77
2020/12/19 02:51:31;;;;;;;8.02;4.85;;;6.30;99.90;;;;;;5066332;28;20162;-75
2020/12/19 02:53:57;;;;;;;;;;;6.30;99.90;;;;;;5062984;28;20119;-75
2020/12/19 02:56:23;;;;;;;7.97;4.90;;;6.30;99.90;;;;;;5059156;28;19921;-77
2020/12/19 02:58:49;;;;;;;;;;;6.30;99.90;;;;;;5059693;28;20037;-76
2020/12/19 03:01:14;;;;;;;8.50;5.32;;;6.20;99.90;;;;;;5047189;28;19920;-78
2020/12/19 03:03:40;;;;;;;8.50;5.05;;;6.20;99.90;;;;;;5046023;28;20048;-76
2020/12/19 03:06:06;;;;;;;8.50;5.22;;;6.20;99.90;;;;;;5046867;28;20147;-78
2020/12/19 03:08:32;;;;;;;;;;;6.20;99.90;;;;;;5048485;28;20116;-78
2020/12/19 03:10:58;;;;;;;8.63;5.05;;;6.20;99.90;;;;;;5048047;28;19917;-78
2020/12/19 03:13:23;;;;;;;8.88;5.60;;;6.10;99.90;;;;;;5066969;28;20045;-77
2020/12/19 03:15:49;;;;;;;11.25;6.22;;;6.20;99.90;;;;;;5065606;28;20052;-75
2020/12/19 03:18:15;;;;;;;;;;;6.10;99.90;;;;;;5066137;28;20094;-77
2020/12/19 03:20:40;;;;;;;9.57;5.57;;;6.10;99.90;;;;;;5082217;28;19923;-77
2020/12/19 03:23:10;;;;;;;;;;;6.20;99.90;;;;;;5058274;28;20048;-76
2020/12/19 03:25:35;;;;;;;10.20;5.18;;;6.20;99.90;;;;;;5055438;28;19927;-78
2020/12/19 03:28:02;;;;;;;;;;;6.20;99.90;;;;;;5057437;28;20084;-76
2020/12/19 03:30:27;;;;;;;14.93;8.45;;;6.10;99.90;;;;;;5051465;28;19952;-77
2020/12/19 03:32:53;;;;;;;;;;;6.20;99.90;;;;;;5065389;28;20063;-77
2020/12/19 03:35:20;;;;;;;10.55;5.63;;;6.20;99.90;;;;;;5048828;28;19913;-76
2020/12/19 03:37:46;;;;;;;11.30;5.68;;;6.20;99.90;;;;;;5051437;28;20079;-77
2020/12/19 03:40:12;;;;;;;10.00;5.57;;;6.20;99.90;;;;;;5045998;28;20040;-77
2020/12/19 03:42:38;;;;;;;7.95;5.18;;;6.20;99.90;;;;;;5056686;28;20093;-77
2020/12/19 03:45:05;;;;;;;;;;;6.10;99.90;;;;;;5070416;28;20048;-77
2020/12/19 03:47:31;;;;;;;10.07;5.50;;;6.10;99.90;;;;;;5067940;28;19927;-78
2020/12/19 03:49:56;;;;;;;;;;;6.10;99.90;;;;;;5050412;28;20124;-76
2020/12/19 03:52:22;;;;;;;10.50;6.45;;;6.10;99.90;;;;;;5073428;28;19916;-76
2020/12/19 03:54:48;;;;;;;;;;;6.20;99.90;;;;;;5061208;28;20041;-76
2020/12/19 03:57:14;;;;;;;13.02;7.43;;;6.20;99.90;;;;;;5064828;28;19916;-76
2020/12/19 03:59:40;;;;;;;;;;;6.10;99.90;;;;;;5067491;28;20086;-77
2020/12/19 04:02:06;;;;;;;12.75;6.43;;;6.10;99.90;;;;;;5069127;28;19921;-77
2020/12/19 04:04:31;;;;;;;11.88;6.57;;;6.10;99.90;;;;;;5070579;28;20054;-77
2020/12/19 04:06:57;;;;;;;;;;;6.00;99.90;;;;;;5067739;28;20438;-77
2020/12/19 04:09:23;;;;;;;16.83;7.43;;;6.10;99.90;;;;;;5059167;28;19927;-77
2020/12/19 04:11:49;;;;;;;;;;;6.10;99.90;;;;;;5069181;28;20037;-77
2020/12/19 04:14:15;;;;;;;14.98;6.85;;;6.20;99.90;;;;;;5057434;28;19939;-77
2020/12/19 04:16:41;;;;;;;10.02;6.32;;;6.20;99.90;;;;;;5048965;28;20040;-76
2020/12/19 04:19:06;;;;;;;11.00;6.57;;;6.30;99.90;;;;;;5050787;28;20052;-77
2020/12/19 04:21:32;;;;;;;;;;;6.30;99.90;;;;;;5050775;28;20080;-76
2020/12/19 04:23:59;;;;;;;10.82;6.35;;;6.30;99.90;;;;;;5061525;28;20325;-76
2020/12/19 04:26:24;;;;;;;12.52;6.28;;;6.30;99.90;;;;;;5064044;28;20051;-77
2020/12/19 04:28:50;;;;;;;;;;;6.30;99.90;;;;;;5069209;28;20036;-76
2020/12/19 04:31:16;;;;;;;12.20;6.18;;;6.30;99.90;;;;;;5057460;28;19965;-76
2020/12/19 04:33:42;;;;;;;;;;;6.30;99.90;;;;;;5050251;28;20749;-77
2020/12/19 04:36:07;;;;;;;9.20;5.88;;;6.40;99.90;;;;;;5049306;28;19927;-77
2020/12/19 04:38:33;;;;;;;9.35;5.35;;;6.40;99.90;;;;;;5066321;28;20170;-78
2020/12/19 04:40:59;;;;;;;;;;;6.30;99.90;;;;;;5051017;28;20036;-77
2020/12/19 04:43:26;;;;;;;11.52;6.25;;;6.20;99.90;;;;;;5049093;28;19932;-77
2020/12/19 04:45:54;;;;;;;10.27;6.53;;;6.20;99.90;;;;;;5056242;28;20033;-76
2020/12/19 04:48:24;;;;;;;13.13;6.85;;;6.30;99.90;;;;;;5052162;28;20093;-75
2020/12/19 04:50:51;;;;;;;9.85;5.68;;;6.30;99.90;;;;;;5049185;28;20138;-75
2020/12/19 04:53:18;;;;;;;11.73;6.88;;;6.30;99.90;;;;;;5061956;28;20036;-76
2020/12/19 04:55:46;;;;;;;12.65;6.53;;;6.30;99.90;;;;;;5068659;28;20125;-78
2020/12/19 04:58:15;;;;;;;9.18;6.50;;;6.20;99.90;;;;;;5054541;28;20037;-78
2020/12/19 05:00:42;;;;;;;10.43;6.07;;;6.20;99.90;;;;;;5067641;28;20036;-76
2020/12/19 05:03:08;;;;;;;;;;;6.20;99.90;;;;;;5060409;28;20033;-77
2020/12/19 05:05:40;;;;;;;9.75;6.13;;;6.10;99.90;;;;;;5068427;28;20023;-76
2020/12/19 05:08:06;;;;;;;11.50;6.10;;;6.10;99.90;;;;;;5066711;28;20047;-75
2020/12/19 05:10:31;;;;;;;;;;;6.10;99.90;;;;;;5070071;28;20045;-78
2020/12/19 05:12:57;;;;;;;10.23;6.70;;;6.20;99.90;;;;;;5063564;28;19924;-76
2020/12/19 05:15:24;;;;;;;;;;;6.20;99.90;;;;;;5068439;28;20089;-75
2020/12/19 05:17:54;;;;;;;11.25;6.55;;;6.30;99.90;;;;;;5076350;28;19916;-75
2020/12/19 05:20:21;;;;;;;13.55;8.13;;;6.30;99.90;;;;;;5048081;28;20041;-77
2020/12/19 05:22:51;;;;;;;15.50;7.78;;;6.40;99.90;;;;;;5059475;28;20048;-76
2020/12/19 05:25:20;;;;;;;12.52;7.28;;;6.40;99.90;;;;;;5055956;28;20515;-76
2020/12/19 05:27:47;;;;;;;12.90;7.88;;;6.40;99.90;;;;;;5049926;28;20091;-76
2020/12/19 05:30:14;;;;;;;21.45;7.55;;;6.50;99.90;;;;;;5047327;28;20043;-77
2020/12/19 05:32:48;;;;;;;15.48;8.70;;;6.50;99.90;;;;;;5067225;28;20046;-78
2020/12/19 05:35:15;;;;;;;14.93;8.40;;;6.50;99.90;;;;;;5064546;28;20123;-78
2020/12/19 05:37:42;;;;;;;15.40;8.45;;;6.50;99.90;;;;;;5052167;28;20041;-78
2020/12/19 05:40:10;;;;;;;14.02;8.13;;;6.50;99.90;;;;;;5061751;28;20036;-75
2020/12/19 05:42:39;;;;;;;13.25;8.20;;;6.50;99.90;;;;;;5067307;28;20051;-76
2020/12/19 05:45:22;;;;;;;15.80;8.02;;;6.50;99.90;;;;;;5067449;28;20052;-76
2020/12/19 05:47:49;;;;;;;12.40;7.00;;;6.60;99.90;;;;;;5046944;28;20067;-76
2020/12/19 05:50:18;;;;;;;15.82;7.63;;;6.60;99.90;;;;;;5065391;28;20083;-76
2020/12/19 05:52:43;;;;;;;14.02;7.85;;;6.60;99.90;;;;;;5064881;28;20036;-78
2020/12/19 05:55:11;;;;;;;;;;;6.60;99.90;;;;;;5059442;28;20051;-77
2020/12/19 05:57:38;;;;;;;11.68;7.30;;;6.60;99.90;;;;;;5063311;28;19924;-77
2020/12/19 06:00:15;;;;;;;12.05;7.82;;;6.70;99.90;;;;;;5050547;28;20049;-75
2020/12/19 06:02:41;;;;;;;15.90;8.35;;;6.60;99.90;;;;;;5050608;28;20040;-76
2020/12/19 06:05:09;;;;;;;17.15;8.80;;;6.70;99.90;;;;;;5066264;28;20044;-75
2020/12/19 06:07:41;;;;;;;14.65;7.40;;;6.80;99.90;;;;;;5053618;28;20079;-79
2020/12/19 06:10:10;;;;;;;11.82;6.88;;;6.80;99.90;;;;;;5056282;28;20058;-78
2020/12/19 06:12:44;;;;;;;12.45;7.00;;;6.80;99.90;;;;;;5065078;28;20044;-76
2020/12/19 06:15:18;;;;;;;11.60;6.97;;;6.80;99.90;;;;;;5060746;28;20039;-78
2020/12/19 06:17:48;;;;;;;11.10;6.97;;;6.80;99.90;;;;;;5064510;28;20119;-77
2020/12/19 06:20:16;;;;;;;11.75;7.00;;;6.80;99.90;;;;;;5064935;28;20035;-75
2020/12/19 06:22:42;;;;;;;10.88;6.63;;;6.80;99.90;;;;;;5067105;28;20662;-78
2020/12/19 06:25:08;;;;;;;12.70;7.70;;;6.80;99.90;;;;;;5053670;28;20044;-77
2020/12/19 06:27:35;;;;;;;;;;;6.80;99.90;;;;;;5048074;28;20045;-77
2020/12/19 06:30:02;;;;;;;12.00;6.90;;;6.80;99.90;;;;;;5047059;28;19921;-76
2020/12/19 06:32:30;;;;;;;10.40;6.82;;;6.80;99.90;;;;;;5056152;28;20044;-76
2020/12/19 06:35:11;;;;;;;11.38;6.95;;;6.80;99.90;;;;;;5066902;28;20072;-76
2020/12/19 06:37:41;;;;;;;11.25;7.20;;;6.80;99.90;;;;;;5066513;28;20037;-76
2020/12/19 06:40:15;;;;;;;13.88;7.15;;;6.80;99.90;;;;;;5066424;28;20055;-77
2020/12/19 06:42:44;;;;;;;13.73;8.25;;;6.90;99.90;;;;;;5064887;28;20098;-76
2020/12/19 06:45:24;;;;;;;11.68;8.02;;;6.80;99.90;;;;;;5066390;28;20040;-75
2020/12/19 06:47:50;;;;;;;17.13;8.63;;;6.90;99.90;;;;;;5066567;28;20072;-77
2020/12/19 06:50:18;;;;;;;12.55;7.80;;;6.90;99.90;;;;;;5056755;28;20093;-79
2020/12/19 06:53:00;;;;;;;14.88;8.48;;;6.90;99.90;;;;;;5065357;28;20040;-77
2020/12/19 06:55:29;;;;;;;13.65;8.35;;;7.00;99.90;;;;;;5064576;28;20048;-79
2020/12/19 06:57:57;;;;;;;14.82;8.70;;;7.00;99.90;;;;;;5060920;28;20123;-76
2020/12/19 07:00:31;;;;;;;13.05;7.88;;;6.90;99.90;;;;;;5046194;28;20166;-76
2020/12/19 07:02:58;;;;;;;16.45;9.77;;;6.90;99.90;;;;;;5056861;28;20052;-77
2020/12/19 07:05:35;;;;;;;25.83;17.35;;;6.90;99.90;;;;;;5046357;28;20119;-78
2020/12/19 07:08:18;;;;;;;16.25;9.82;;;6.90;99.90;;;;;;5061003;28;20047;-78
2020/12/19 07:10:45;;;;;;;13.85;8.15;;;6.90;99.90;;;;;;5052847;28;20037;-76
2020/12/19 07:13:12;;;;;;;15.00;9.60;;;6.90;99.90;;;;;;5055157;28;20047;-76
2020/12/19 07:15:41;;;;;;;14.80;8.48;;;6.90;99.90;;;;;;5065236;28;20055;-79
2020/12/19 07:18:24;;;;;;;16.42;8.82;;;6.90;99.90;;;;;;5054614;28;20045;-79
2020/12/19 07:21:09;;;;;;;19.27;9.27;;;6.90;99.90;;;;;;5057573;28;20036;-78
2020/12/19 07:23:37;;;;;;;16.35;9.15;;;6.90;99.90;;;;;;5057264;28;20045;-78
2020/12/19 07:26:05;;;;;;;17.02;9.10;;;6.90;99.90;;;;;;5059709;28;20119;-80
2020/12/19 07:28:31;;;;;;;17.67;10.35;;;6.90;99.90;;;;;;5064351;28;20036;-79
2020/12/19 07:30:56;;;;;;;;;;;6.90;99.90;;;;;;5049453;28;20126;-77
2020/12/19 07:33:23;;;;;;;15.02;9.27;;;6.90;99.90;;;;;;5067292;28;19916;-79
2020/12/19 07:35:49;;;;;;;16.23;10.45;;;6.90;99.90;;;;;;5067790;28;20044;-77
2020/12/19 07:38:15;;;;;;;14.32;8.88;;;7.00;99.90;;;;;;5067998;28;20123;-80
2020/12/19 07:40:41;;;;;;;17.48;10.50;;;7.00;99.90;;;;;;5066824;28;20051;-78
2020/12/19 07:43:09;;;;;;;16.27;10.07;;;7.00;99.90;;;;;;5055970;28;20045;-78
2020/12/19 07:45:36;;;;;;;18.15;10.25;;;7.00;99.90;;;;;;5052623;28;20340;-79
2020/12/19 07:48:03;;;;;;;18.23;11.40;;;7.00;99.90;;;;;;5066747;28;20416;-78
2020/12/19 07:50:32;;;;;;;15.68;10.05;;;7.00;99.90;;;;;;5065449;28;20052;-78
2020/12/19 07:53:07;;;;;;;14.45;9.82;;;7.00;99.90;;;;;;5063352;28;20040;-81
2020/12/19 07:55:34;;;;;;;16.63;9.73;;;7.00;99.90;;;;;;5061803;28;20132;-79
2020/12/19 07:58:02;;;;;;;23.65;10.00;;;7.00;99.90;;;;;;5060984;28;20041;-78
2020/12/19 08:00:30;;;;;;;13.40;9.40;;;7.00;99.90;;;;;;5048529;28;20565;-78
2020/12/19 08:02:56;;;;;;;20.85;10.80;;;7.10;99.90;;;;;;5065612;28;20043;-80
2020/12/19 08:05:23;;;;;;;15.95;9.75;;;7.10;99.90;;;;;;5058823;28;20171;-79
2020/12/19 08:07:52;;;;;;;16.45;10.15;;;7.10;99.90;;;;;;5065537;28;20481;-79
2020/12/19 08:10:18;;;;;;;17.50;9.80;;;7.10;99.90;;;;;;5065198;28;20036;-79
2020/12/19 08:12:44;;;;;;;21.20;13.10;;;7.10;99.90;;;;;;5065910;28;20044;-80
2020/12/19 08:15:12;;;;;;;15.93;9.55;;;7.10;99.90;;;;;;5045986;28;20032;-79
2020/12/19 08:18:00;;;;;;;15.52;9.27;;;7.10;99.90;;;;;;5049112;28;20044;-79
2020/12/19 08:20:32;;;;;;;17.23;10.38;;;7.10;99.90;;;;;;5065926;28;20036;-79
2020/12/19 08:23:06;;;;;;;16.85;10.27;;;7.20;99.90;;;;;;5066123;28;20033;-78
2020/12/19 08:25:33;;;;;;;17.50;9.00;;;7.20;99.90;;;;;;5054957;28;20041;-78
2020/12/19 08:27:59;;;;;;;15.50;8.82;;;7.30;99.90;;;;;;5060595;28;20469;-79
2020/12/19 08:30:27;;;;;;;16.45;9.63;;;7.30;99.90;;;;;;5068750;28;20044;-77
2020/12/19 08:33:05;;;;;;;17.33;11.13;;;7.40;99.90;;;;;;5069351;28;20081;-76
2020/12/19 08:35:32;;;;;;;14.85;10.30;;;7.40;99.90;;;;;;5069491;28;20041;-76
2020/12/19 08:38:07;;;;;;;14.45;8.90;;;7.50;99.90;;;;;;5068727;28;20093;-76
2020/12/19 08:40:41;;;;;;;13.38;9.13;;;7.50;99.90;;;;;;5064281;28;20511;-77
2020/12/19 08:43:09;;;;;;;11.45;7.65;;;7.50;99.90;;;;;;5051338;28;20556;-77
2020/12/19 08:45:36;;;;;;;14.70;9.05;;;7.50;99.90;;;;;;5048516;28;20045;-75
2020/12/19 08:48:06;;;;;;;15.60;9.23;;;7.50;99.90;;;;;;5049743;28;20073;-77
2020/12/19 08:50:37;;;;;;;18.23;9.50;;;7.50;99.90;;;;;;5067329;28;20037;-78
2020/12/19 08:53:09;;;;;;;13.40;8.27;;;7.50;99.90;;;;;;5068365;28;20093;-77
2020/12/19 08:55:35;;;;;;;12.50;7.38;;;7.60;99.90;;;;;;5067780;28;20076;-77
2020/12/19 08:58:02;;;;;;;13.30;8.15;;;7.60;99.90;;;;;;5056790;28;20064;-76
2020/12/19 09:00:37;;;;;;;13.73;8.00;;;7.60;99.90;;;;;;5068239;28;20040;-78
2020/12/19 09:03:07;;;;;;;14.97;8.70;;;7.60;99.90;;;;;;5069331;28;20040;-78
2020/12/19 09:05:43;;;;;;;16.55;7.75;;;7.60;99.90;;;;;;5068003;28;20044;-77
2020/12/19 09:08:13;;;;;;;16.95;8.05;;;7.60;99.90;;;;;;5051584;28;20047;-78
2020/12/19 09:10:41;;;;;;;14.48;7.70;;;7.60;99.90;;;;;;5063135;28;20051;-78
2020/12/19 09:13:17;;;;;;;15.10;9.85;;;7.70;99.90;;;;;;5065799;28;20064;-80
2020/12/19 09:15:45;;;;;;;14.93;9.38;;;7.70;99.90;;;;;;5054740;28;20115;-77
2020/12/19 09:18:22;;;;;;;11.05;7.75;;;7.80;99.90;;;;;;5068785;28;20047;-79
2020/12/19 09:20:53;;;;;;;13.10;7.35;;;7.80;99.90;;;;;;5068953;28;20040;-81
2020/12/19 09:23:20;;;;;;;14.82;9.43;;;7.80;99.90;;;;;;5068607;28;20654;-77
2020/12/19 09:25:47;;;;;;;19.75;11.15;;;7.80;99.90;;;;;;5059383;28;20044;-79
2020/12/19 09:28:13;;;;;;;12.20;8.13;;;7.80;99.90;;;;;;5059212;28;20036;-77
2020/12/19 09:30:39;;;;;;;19.92;10.85;;;7.70;99.90;;;;;;5064529;28;20039;-78
2020/12/19 09:33:05;;;;;;;13.60;9.02;;;7.80;99.90;;;;;;5068447;28;20033;-79
2020/12/19 09:35:32;;;;;;;15.77;9.05;;;7.90;99.90;;;;;;5068505;28;20159;-80
2020/12/19 09:37:58;;;;;;;11.32;8.15;;;7.90;99.90;;;;;;5059272;28;20111;-82
2020/12/19 09:40:23;;;;;;;;;;;7.80;99.90;;;;;;5068092;28;20560;-80
2020/12/19 09:42:50;;;;;;;23.50;14.85;;;7.80;99.90;;;;;;5068125;28;19920;-79
2020/12/19 09:45:15;;;;;;;;;;;7.80;99.90;;;;;;5068911;28;20119;-81
2020/12/19 09:47:41;;;;;;;12.40;8.15;;;7.80;99.90;;;;;;5068012;28;19916;-80
2020/12/19 09:50:09;;;;;;;;;;;7.80;99.90;;;;;;5068538;28;20051;-80
2020/12/19 09:52:35;;;;;;;12.52;7.65;;;7.70;99.90;;;;;;5067633;28;20296;-80
2020/12/19 09:55:02;;;;;;;12.95;7.13;;;7.70;99.90;;;;;;5060899;28;20132;-80
2020/12/19 09:57:28;;;;;;;12.35;7.57;;;7.80;99.90;;;;;;5067995;28;20045;-79
2020/12/19 09:59:53;;;;;;;;;;;7.80;99.90;;;;;;5065430;28;20032;-78
2020/12/19 10:02:19;;;;;;;12.35;7.28;;;7.80;99.90;;;;;;5064350;28;20301;-78
2020/12/19 10:04:45;;;;;;;;;;;7.80;99.90;;;;;;5065967;28;20044;-78
2020/12/19 10:07:12;;;;;;;21.27;13.20;;;7.80;99.90;;;;;;5054493;28;19921;-77
2020/12/19 10:09:39;;;;;;;13.48;7.05;;;7.80;99.90;;;;;;5055340;28;20648;-79
2020/12/19 10:12:05;;;;;;;;;;;7.90;99.90;;;;;;5068299;28;20068;-78
2020/12/19 10:14:31;;;;;;;12.35;7.40;;;7.90;99.90;;;;;;5059534;28;19967;-79
2020/12/19 10:16:57;;;;;;;14.93;8.18;;;7.80;99.90;;;;;;5065949;28;20072;-79
2020/12/19 10:19:22;;;;;;;;;;;7.80;99.90;;;;;;5060543;28;20060;-79
2020/12/19 10:21:49;;;;;;;14.48;7.95;;;7.90;99.90;;;;;;5057465;28;20015;-78
2020/12/19 10:24:15;;;;;;;14.10;8.48;;;7.90;99.90;;;;;;5063066;28;20128;-76
2020/12/19 10:26:45;;;;;;;;;;;7.90;99.90;;;;;;5048355;28;20124;-77
2020/12/19 10:29:13;;;;;;;14.02;8.52;;;7.90;99.90;;;;;;5047575;28;19920;-77
2020/12/19 10:31:39;;;;;;;10.20;6.57;;;8.00;99.90;;;;;;5065000;28;20044;-78
2020/12/19 10:34:10;;;;;;;11.05;7.15;;;8.00;99.90;;;;;;5066841;28;20082;-81
2020/12/19 10:36:36;;;;;;;11.30;7.40;;;8.00;99.90;;;;;;5061585;28;20546;-79
2020/12/19 10:39:02;;;;;;;;;;;8.10;99.90;;;;;;5055776;28;20060;-79
2020/12/19 10:41:28;;;;;;;15.20;8.02;;;8.10;99.90;;;;;;5060973;28;20292;-77
2020/12/19 10:43:54;;;;;;;;;;;8.00;99.90;;;;;;5067309;28;20508;-77
2020/12/19 10:46:24;;;;;;;13.55;8.63;;;8.00;99.90;;;;;;5065816;28;20003;-76
2020/12/19 10:48:51;;;;;;;11.73;7.10;;;7.90;99.90;;;;;;5066564;28;20116;-74
2020/12/19 10:51:16;;;;;;;11.32;7.15;;;8.00;99.90;;;;;;5067310;28;20537;-81
2020/12/19 10:53:44;;;;;;;;;;;8.00;99.90;;;;;;5065855;28;20147;-82
2020/12/19 10:56:18;;;;;;;16.00;8.32;;;8.00;99.90;;;;;;5047477;28;19999;-80
2020/12/19 10:58:44;;;;;;;11.30;6.88;;;8.00;99.90;;;;;;5055426;28;20044;-78
2020/12/19 11:01:10;;;;;;;11.65;7.68;;;8.10;99.90;;;;;;5047726;28;20044;-81
2020/12/19 11:03:37;;;;;;;10.18;6.10;;;8.30;99.90;;;;;;5063980;28;20746;-83
2020/12/19 11:06:03;;;;;;;11.98;7.78;;;8.30;99.90;;;;;;5068684;28;20119;-81
2020/12/19 11:08:29;;;;;;;;;;;8.30;99.90;;;;;;5068509;28;20132;-81
2020/12/19 11:10:54;;;;;;;11.43;7.22;;;8.30;99.90;;;;;;5067458;28;20008;-75
2020/12/19 11:13:20;;;;;;;;;;;8.20;99.90;;;;;;5063943;28;20067;-81
2020/12/19 11:15:49;;;;;;;14.25;8.27;;;8.20;99.90;;;;;;5046706;28;19924;-84
2020/12/19 11:18:15;;;;;;;17.67;8.65;;;8.10;99.90;;;;;;5067308;28;20036;-80
2020/12/19 11:20:41;;;;;;;13.02;7.95;;;8.00;99.90;;;;;;5066938;28;20500;-84
2020/12/19 11:23:08;;;;;;;;;;;8.00;99.90;;;;;;5064232;28;20060;-81
2020/12/19 11:25:34;;;;;;;10.82;6.97;;;8.10;99.90;;;;;;5059297;28;19967;-78
2020/12/19 11:27:59;;;;;;;;;;;8.20;99.90;;;;;;5068176;28;20060;-79
2020/12/19 11:30:25;;;;;;;17.35;7.38;;;8.30;99.90;;;;;;5066162;28;19921;-81
2020/12/19 11:32:53;;;;;;;;;;;8.30;99.90;;;;;;5067539;28;20040;-80
2020/12/19 11:35:22;;;;;;;12.68;7.20;;;8.40;99.90;;;;;;5067002;28;19955;-78
2020/12/19 11:37:48;;;;;;;;;;;8.40;99.90;;;;;;5059593;28;20060;-78
2020/12/19 11:40:14;;;;;;;12.05;7.00;;;8.40;99.90;;;;;;5068265;28;19971;-80
2020/12/19 11:42:40;;;;;;;;;;;8.50;99.90;;;;;;5067936;28;20052;-79
2020/12/19 11:45:07;;;;;;;12.65;6.50;;;8.40;99.90;;;;;;5064486;28;19954;-80
2020/12/19 11:47:35;;;;;;;12.95;6.97;;;8.50;99.90;;;;;;5066231;28;20041;-87
2020/12/19 11:50:03;;;;;;;9.80;6.45;;;8.60;99.90;;;;;;5067611;28;20052;-85
2020/12/19 11:52:30;;;;;;;13.35;7.68;;;8.60;99.90;;;;;;5059667;28;20048;-84
2020/12/19 11:54:56;;;;;;;12.80;7.43;;;8.60;99.90;;;;;;5064392;28;20049;-83
2020/12/19 11:57:22;;;;;;;;;;;8.60;99.90;;;;;;5051117;28;20047;-77
2020/12/19 11:59:48;;;;;;;11.32;6.72;;;8.60;99.90;;;;;;5050365;28;19916;-81
2020/12/19 12:02:14;;;;;;;;;;;8.60;99.90;;;;;;5055980;28;20037;-86
2020/12/19 12:04:40;;;;;;;11.13;6.60;;;8.70;99.90;;;;;;5069938;28;19927;-80
2020/12/19 12:07:05;;;;;;;;;;;8.70;99.90;;;;;;5064207;28;20087;-78
2020/12/19 12:09:31;;;;;;;11.43;6.80;;;8.70;99.90;;;;;;5056446;28;19920;-80
2020/12/19 12:12:07;;;;;;;;;;;8.70;99.90;;;;;;5066962;28;20045;-79
2020/12/19 12:14:33;;;;;;;10.57;6.45;;;8.80;99.90;;;;;;5066401;28;19920;-81
2020/12/19 12:17:00;;;;;;;14.55;7.03;;;8.70;99.90;;;;;;5059669;28;20072;-85
2020/12/19 12:19:26;;;;;;;;;;;8.70;99.90;;;;;;5049761;28;20075;-83
2020/12/19 12:21:52;;;;;;;9.65;6.55;;;8.70;99.90;;;;;;5050476;28;19960;-84
2020/12/19 12:24:17;;;;;;;;;;;8.60;99.90;;;;;;5069883;28;20080;-82
2020/12/19 12:27:23;;;;;;;11.95;6.55;;;8.60;99.90;;;;;;5063967;28;19931;-82
2020/12/19 12:29:49;;;;;;;11.65;7.25;;;8.60;99.90;;;;;;5053997;28;20516;-82
2020/12/19 12:32:17;;;;;;;11.05;6.57;;;8.60;99.90;;;;;;5053755;28;20451;-82
2020/12/19 12:34:42;;;;;;;10.52;7.15;;;8.60;99.90;;;;;;5051894;28;20195;-83
2020/12/19 12:37:11;;;;;;;;;;;8.60;99.90;;;;;;5050044;28;20115;-81
2020/12/19 12:39:37;;;;;;;9.73;6.30;;;8.60;99.90;;;;;;5067420;28;20025;-81
2020/12/19 12:42:03;;;;;;;;;;;8.60;99.90;;;;;;5065462;28;20060;-83
2020/12/19 12:44:28;;;;;;;9.13;6.50;;;8.60;99.90;;;;;;5057249;28;19978;-81
2020/12/19 12:46:54;;;;;;;;;;;8.50;99.90;;;;;;5056678;28;20530;-81
2020/12/19 12:49:21;;;;;;;15.05;6.95;;;8.50;99.90;;;;;;5058099;28;19920;-82
2020/12/19 12:51:49;;;;;;;10.73;6.38;;;8.50;99.90;;;;;;5056363;28;20041;-81
2020/12/19 12:54:15;;;;;;;11.85;6.80;;;8.40;99.90;;;;;;5058813;28;20037;-82
2020/12/19 12:56:42;;;;;;;10.75;6.60;;;8.40;99.90;;;;;;5062915;28;20071;-82
2020/12/19 12:59:08;;;;;;;16.48;6.82;;;8.40;99.90;;;;;;5064215;28;20052;-82
2020/12/19 13:01:36;;;;;;;10.00;6.30;;;8.30;99.90;;;;;;5063379;28;20037;-81
2020/12/19 13:04:02;;;;;;;;;;;8.30;99.90;;;;;;5064308;28;20044;-80
2020/12/19 13:06:28;;;;;;;10.43;6.95;;;8.30;99.90;;;;;;5060453;28;19921;-80
2020/12/19 13:08:54;;;;;;;;;;;8.30;99.90;;;;;;5055121;28;20037;-80